Time;durP1;ratioP1;P1;durP2;ratioP2;P2;SDS_P1;SDS_P2;PMS_P1;PMS_P2;Temp;Humidity;BMP_temperature;BMP_pressure;BME280_temperature;BME280_humidity;BME280_pressure;Samples;Min_cycle;Max_cycle;Signal;HPM_P1;HPM_P2
2022/11/06 00:00:12;;;;;;;10.43;4.22;;;9.80;99.90;;;;;;5037332;28;20052;-73
2022/11/06 00:02:38;;;;;;;10.27;4.13;;;9.80;99.90;;;;;;5061005;28;20052;-73
2022/11/06 00:07:48;;;;;;;7.90;3.63;;;9.80;99.90;;;;;;5029397;28;20052;-73
2022/11/06 00:10:15;;;;;;;17.27;4.40;;;9.80;99.90;;;;;;5076111;28;20053;-74
2022/11/06 00:12:41;;;;;;;9.45;3.85;;;9.70;99.90;;;;;;5033381;28;20134;-75
2022/11/06 00:15:07;;;;;;;10.23;3.58;;;9.70;99.90;;;;;;5028047;28;20089;-73
2022/11/06 00:17:33;;;;;;;8.18;4.20;;;9.70;99.90;;;;;;5033435;28;20107;-73
2022/11/06 00:19:59;;;;;;;8.98;4.00;;;9.70;99.90;;;;;;5038124;28;20513;-75
2022/11/06 00:22:24;;;;;;;13.23;3.70;;;9.70;99.90;;;;;;5048507;28;20355;-74
2022/11/06 00:24:50;;;;;;;11.70;4.05;;;9.70;99.90;;;;;;5044972;28;20088;-75
2022/11/06 00:27:16;;;;;;;11.15;4.40;;;9.70;99.90;;;;;;5033177;28;20046;-74
2022/11/06 00:29:42;;;;;;;8.68;3.72;;;9.60;99.90;;;;;;5038254;28;20047;-74
2022/11/06 00:32:07;;;;;;;8.02;3.53;;;9.60;99.90;;;;;;5048140;28;20045;-73
2022/11/06 00:34:33;;;;;;;12.52;4.50;;;9.60;99.90;;;;;;5046528;28;20422;-74
2022/11/06 00:36:59;;;;;;;8.50;3.50;;;9.60;99.90;;;;;;5033733;28;20072;-74
2022/11/06 00:39:25;;;;;;;11.00;4.18;;;9.60;99.90;;;;;;5043609;28;20055;-73
2022/11/06 00:41:50;;;;;;;12.23;5.03;;;9.60;99.90;;;;;;5046540;28;20041;-74
2022/11/06 00:44:16;;;;;;;10.98;4.13;;;9.60;99.90;;;;;;5055684;28;20057;-75
2022/11/06 00:46:42;;;;;;;9.40;3.95;;;9.60;99.90;;;;;;5042882;28;20055;-75
2022/11/06 00:49:07;;;;;;;9.15;3.90;;;9.50;99.90;;;;;;5031064;28;20037;-77
2022/11/06 00:51:38;;;;;;;11.38;3.92;;;9.60;99.90;;;;;;5029897;28;20048;-73
2022/11/06 00:54:06;;;;;;;9.35;3.80;;;9.60;99.90;;;;;;5032926;28;20053;-76
2022/11/06 00:56:33;;;;;;;13.77;4.10;;;9.60;99.90;;;;;;5044119;28;20049;-74
2022/11/06 00:58:59;;;;;;;8.27;3.75;;;9.60;99.90;;;;;;5042568;28;20037;-74
2022/11/06 01:01:31;;;;;;;10.77;3.90;;;9.60;99.90;;;;;;5031170;28;20375;-76
2022/11/06 01:04:01;;;;;;;8.32;3.92;;;9.60;99.90;;;;;;5027490;28;20053;-76
2022/11/06 01:06:29;;;;;;;9.02;3.88;;;9.60;99.90;;;;;;5030951;28;20080;-74
2022/11/06 01:08:55;;;;;;;10.85;4.32;;;9.60;99.90;;;;;;5035281;28;20478;-73
2022/11/06 01:11:27;;;;;;;13.48;4.30;;;9.50;99.90;;;;;;5029985;28;20506;-73
2022/11/06 01:13:55;;;;;;;7.43;4.03;;;9.60;99.90;;;;;;5042207;28;20072;-74
2022/11/06 01:16:22;;;;;;;8.77;3.70;;;9.60;99.90;;;;;;5031831;28;20098;-74
2022/11/06 01:18:48;;;;;;;9.20;4.10;;;9.60;99.90;;;;;;5028052;28;20042;-76
2022/11/06 01:21:20;;;;;;;10.02;3.85;;;9.60;99.90;;;;;;5032069;28;20053;-74
2022/11/06 01:23:46;;;;;;;12.30;4.78;;;9.60;99.90;;;;;;5043273;28;20056;-73
2022/11/06 01:26:12;;;;;;;;;;;9.60;99.90;;;;;;5039651;28;20053;-74
2022/11/06 01:28:39;;;;;;;7.35;3.25;;;9.60;99.90;;;;;;5039396;28;19966;-73
2022/11/06 01:31:13;;;;;;;13.05;5.50;;;9.60;99.90;;;;;;5034838;28;20049;-76
2022/11/06 01:33:39;;;;;;;10.00;4.65;;;9.50;99.90;;;;;;5032575;28;20046;-76
2022/11/06 01:36:07;;;;;;;9.35;4.22;;;9.60;99.90;;;;;;5037975;28;20045;-73
2022/11/06 01:38:33;;;;;;;8.77;3.97;;;9.60;99.90;;;;;;5038420;28;20174;-73
2022/11/06 01:40:58;;;;;;;10.32;3.75;;;9.60;99.90;;;;;;5029848;28;20112;-73
2022/11/06 01:43:56;;;;;;;9.82;3.60;;;9.50;99.90;;;;;;5027790;28;20151;-73
2022/11/06 01:46:25;;;;;;;10.43;3.83;;;9.50;99.90;;;;;;5036598;28;20064;-74
2022/11/06 01:48:58;;;;;;;7.70;3.50;;;9.40;99.90;;;;;;5045999;28;20131;-76
2022/11/06 01:51:27;;;;;;;10.88;3.90;;;9.40;99.90;;;;;;5046870;28;20044;-73
2022/11/06 01:53:53;;;;;;;14.05;4.05;;;9.40;99.90;;;;;;5048289;28;20053;-74
2022/11/06 01:56:19;;;;;;;;;;;9.30;99.90;;;;;;5040732;28;20045;-73
2022/11/06 01:58:47;;;;;;;12.32;4.03;;;9.30;99.90;;;;;;5043561;28;20492;-73
2022/11/06 02:01:14;;;;;;;9.57;4.00;;;9.30;99.90;;;;;;5047140;28;20055;-76
2022/11/06 02:03:49;;;;;;;8.85;3.50;;;9.20;99.90;;;;;;5040324;28;20117;-74
2022/11/06 02:06:15;;;;;;;12.43;4.00;;;9.20;99.90;;;;;;5026302;28;20049;-74
2022/11/06 02:08:41;;;;;;;9.48;4.07;;;9.20;99.90;;;;;;5029817;28;20042;-75
2022/11/06 02:11:07;;;;;;;7.72;3.63;;;9.20;99.90;;;;;;5049340;28;20053;-73
2022/11/06 02:13:38;;;;;;;10.25;3.75;;;9.20;99.90;;;;;;5051101;28;20048;-74
2022/11/06 02:16:12;;;;;;;12.50;4.30;;;9.20;99.90;;;;;;5045824;28;20049;-74
2022/11/06 02:18:56;;;;;;;11.23;4.43;;;9.20;99.90;;;;;;5048344;28;20056;-73
2022/11/06 02:21:53;;;;;;;16.67;4.72;;;9.20;99.90;;;;;;5032598;28;20049;-73
2022/11/06 02:24:41;;;;;;;6.60;3.08;;;9.20;99.90;;;;;;5022753;28;20103;-74
2022/11/06 02:27:13;;;;;;;9.35;3.58;;;9.20;99.90;;;;;;5051504;28;20060;-73
2022/11/06 02:30:00;;;;;;;18.88;4.70;;;9.20;99.90;;;;;;5050662;28;20103;-73
2022/11/06 02:32:39;;;;;;;11.27;3.70;;;9.20;99.90;;;;;;5050450;28;20495;-75
2022/11/06 02:35:12;;;;;;;8.70;3.72;;;9.20;99.90;;;;;;5048970;28;20052;-75
2022/11/06 02:37:41;;;;;;;11.23;4.78;;;9.10;99.90;;;;;;5050713;28;20141;-74
2022/11/06 02:40:08;;;;;;;12.38;3.92;;;9.00;99.90;;;;;;5044509;28;20049;-73
2022/11/06 02:42:39;;;;;;;11.85;4.28;;;9.00;99.90;;;;;;5030584;28;20559;-74
2022/11/06 02:45:08;;;;;;;14.57;3.92;;;8.90;99.90;;;;;;5029606;28;20540;-73
2022/11/06 02:47:35;;;;;;;7.95;3.70;;;8.90;99.90;;;;;;5046361;28;20482;-73
2022/11/06 02:50:16;;;;;;;11.15;3.67;;;8.90;99.90;;;;;;5049114;28;20063;-73
2022/11/06 02:53:12;;;;;;;11.25;3.75;;;8.90;99.90;;;;;;5050895;28;20049;-73
2022/11/06 02:55:47;;;;;;;13.23;3.95;;;8.90;99.90;;;;;;5026887;28;20322;-73
2022/11/06 02:58:14;;;;;;;7.55;3.63;;;8.80;99.90;;;;;;5050912;28;20048;-75
2022/11/06 03:00:42;;;;;;;11.13;4.07;;;8.80;99.90;;;;;;5050035;28;20055;-73
2022/11/06 03:03:15;;;;;;;12.20;3.25;;;8.80;99.90;;;;;;5050703;28;20050;-74
2022/11/06 03:06:03;;;;;;;7.70;2.75;;;8.90;99.90;;;;;;5035469;28;20047;-74
2022/11/06 03:08:32;;;;;;;7.78;3.33;;;8.90;99.90;;;;;;5030636;28;20445;-73
2022/11/06 03:11:22;;;;;;;6.63;3.60;;;8.80;99.90;;;;;;5050653;28;20051;-75
2022/11/06 03:13:54;;;;;;;8.20;3.55;;;8.90;99.90;;;;;;5050371;28;20134;-76
2022/11/06 03:16:42;;;;;;;9.15;3.33;;;8.90;99.90;;;;;;5039099;28;20052;-73
2022/11/06 03:19:31;;;;;;;10.77;3.72;;;8.90;99.90;;;;;;5028496;28;20037;-72
2022/11/06 03:22:05;;;;;;;7.13;3.00;;;9.00;99.90;;;;;;5031276;28;20060;-73
2022/11/06 03:24:53;;;;;;;7.85;3.88;;;9.00;99.90;;;;;;5029569;28;20395;-74
2022/11/06 03:27:33;;;;;;;8.35;3.05;;;9.00;99.90;;;;;;5066235;28;20128;-75
2022/11/06 03:30:09;;;;;;;10.13;3.50;;;9.00;99.90;;;;;;5049760;28;20087;-74
2022/11/06 03:32:40;;;;;;;7.28;3.58;;;9.00;99.90;;;;;;5049810;28;20049;-72
2022/11/06 03:35:29;;;;;;;8.80;3.42;;;9.00;99.90;;;;;;5047963;28;20471;-73
2022/11/06 03:38:03;;;;;;;8.15;3.20;;;9.00;99.90;;;;;;5040588;28;20048;-72
2022/11/06 03:40:34;;;;;;;7.22;3.03;;;9.10;99.90;;;;;;5049448;28;20052;-73
2022/11/06 03:43:03;;;;;;;7.60;2.90;;;9.00;99.90;;;;;;5050164;28;20131;-73
2022/11/06 03:45:30;;;;;;;6.93;3.25;;;9.10;99.90;;;;;;5048808;28;20061;-75
2022/11/06 03:48:10;;;;;;;7.90;3.17;;;9.10;99.90;;;;;;5048645;28;20044;-72
2022/11/06 03:50:44;;;;;;;6.78;4.05;;;9.10;99.90;;;;;;5047670;28;20359;-72
2022/11/06 03:53:29;;;;;;;9.80;2.70;;;9.20;99.90;;;;;;5048730;28;20664;-73
2022/11/06 03:56:01;;;;;;;10.48;2.90;;;9.20;99.90;;;;;;5029751;28;20056;-75
2022/11/06 03:58:32;;;;;;;8.00;2.78;;;9.20;99.90;;;;;;5033174;28;20045;-72
2022/11/06 04:01:02;;;;;;;8.02;2.33;;;9.20;99.90;;;;;;5049254;28;20053;-72
2022/11/06 04:03:40;;;;;;;7.15;2.50;;;9.10;99.90;;;;;;5049201;28;20475;-73
2022/11/06 04:06:17;;;;;;;7.07;2.70;;;9.20;99.90;;;;;;5047731;28;20053;-73
2022/11/06 04:14:18;;;;;;;10.85;3.00;;;9.20;99.90;;;;;;5036058;28;20057;-72
2022/11/06 04:16:49;;;;;;;4.93;2.50;;;9.20;99.90;;;;;;5029075;28;20136;-74
2022/11/06 04:19:17;;;;;;;8.40;3.58;;;9.20;99.90;;;;;;5028241;28;20042;-75
2022/11/06 04:21:52;;;;;;;9.85;2.97;;;9.20;99.90;;;;;;5035108;28;20370;-73
2022/11/06 04:27:37;;;;;;;7.55;2.25;;;9.20;99.90;;;;;;5028155;28;20418;-73
2022/11/06 04:30:11;;;;;;;5.68;2.28;;;9.20;99.90;;;;;;5028422;28;20903;-73
2022/11/06 04:32:36;;;;;;;9.32;2.38;;;9.20;99.90;;;;;;5038967;28;20041;-73
2022/11/06 04:35:15;;;;;;;9.93;2.72;;;9.20;99.90;;;;;;5040145;28;20107;-72
2022/11/06 04:37:59;;;;;;;7.35;2.45;;;9.20;99.90;;;;;;5042645;28;20049;-73
2022/11/06 04:40:50;;;;;;;13.10;3.15;;;9.20;99.90;;;;;;5046282;28;20419;-75
2022/11/06 04:43:22;;;;;;;6.13;2.83;;;9.10;99.90;;;;;;5081355;28;20406;-73
2022/11/06 04:45:52;;;;;;;7.95;2.85;;;9.00;99.90;;;;;;5047773;28;20048;-73
2022/11/06 04:48:19;;;;;;;4.70;2.28;;;8.90;99.90;;;;;;5048817;28;20790;-73
2022/11/06 04:50:53;;;;;;;10.65;3.05;;;9.00;99.90;;;;;;5046225;28;20032;-72
2022/11/06 04:53:19;;;;;;;6.07;2.95;;;8.90;99.90;;;;;;5048980;28;20048;-73
2022/11/06 04:55:54;;;;;;;9.18;3.05;;;8.90;99.90;;;;;;5029398;28;20041;-73
2022/11/06 04:58:20;;;;;;;5.32;2.95;;;8.90;99.90;;;;;;5028664;28;20049;-73
2022/11/06 05:00:49;;;;;;;6.10;2.55;;;8.80;99.90;;;;;;5027743;28;20046;-75
2022/11/06 05:03:15;;;;;;;10.40;2.45;;;8.80;99.90;;;;;;5032535;28;20078;-73
2022/11/06 05:05:41;;;;;;;9.25;2.60;;;8.80;99.90;;;;;;5039926;28;20049;-74
2022/11/06 05:08:12;;;;;;;;;;;8.80;99.90;;;;;;5036712;28;20049;-74
2022/11/06 05:10:37;;;;;;;5.22;2.53;;;8.80;99.90;;;;;;5048135;28;19979;-74
2022/11/06 05:13:03;;;;;;;8.80;2.40;;;8.80;99.90;;;;;;5047393;28;20087;-75
2022/11/06 05:15:29;;;;;;;5.78;2.38;;;8.70;99.90;;;;;;5047498;28;20045;-76
2022/11/06 05:17:57;;;;;;;11.82;2.65;;;8.90;99.90;;;;;;5048709;28;20053;-73
2022/11/06 05:20:23;;;;;;;8.05;2.53;;;8.90;99.90;;;;;;5045177;28;20052;-73
2022/11/06 05:22:59;;;;;;;6.70;2.70;;;8.90;99.90;;;;;;5048105;28;20049;-75
2022/11/06 05:25:30;;;;;;;9.83;2.50;;;8.90;99.90;;;;;;5037037;28;20056;-76
2022/11/06 05:27:56;;;;;;;8.50;2.78;;;8.90;99.90;;;;;;5048764;28;20049;-72
2022/11/06 05:30:22;;;;;;;;;;;8.90;99.90;;;;;;5048172;28;20498;-72
2022/11/06 05:32:49;;;;;;;9.80;2.72;;;8.90;99.90;;;;;;5048061;28;19928;-72
2022/11/06 05:35:15;;;;;;;;;;;8.90;99.90;;;;;;5044282;28;20057;-72
2022/11/06 05:37:40;;;;;;;6.90;2.17;;;8.90;99.90;;;;;;5047955;28;19977;-75
2022/11/06 05:40:09;;;;;;;5.45;2.47;;;8.90;99.90;;;;;;5048656;28;20056;-72
2022/11/06 05:42:39;;;;;;;6.47;2.33;;;9.00;99.90;;;;;;5049059;28;20037;-73
2022/11/06 05:45:06;;;;;;;5.25;2.35;;;9.00;99.90;;;;;;5035945;28;20503;-72
2022/11/06 05:47:32;;;;;;;6.47;2.30;;;9.00;99.90;;;;;;5031807;28;20049;-76
2022/11/06 05:49:57;;;;;;;;;;;9.00;99.90;;;;;;5043243;28;20107;-73
2022/11/06 05:52:23;;;;;;;7.35;2.25;;;9.10;99.90;;;;;;5032190;28;20290;-75
2022/11/06 05:54:49;;;;;;;9.05;2.38;;;9.10;99.90;;;;;;5031504;28;20541;-72
2022/11/06 05:57:14;;;;;;;8.18;2.60;;;9.10;99.90;;;;;;5032067;28;20076;-72
2022/11/06 05:59:40;;;;;;;5.45;1.90;;;9.10;99.90;;;;;;5030871;28;20597;-73
2022/11/06 06:02:06;;;;;;;6.70;2.05;;;9.10;99.90;;;;;;5046833;28;20081;-75
2022/11/06 06:04:32;;;;;;;7.90;2.25;;;9.10;99.90;;;;;;5048966;28;20056;-76
2022/11/06 06:06:58;;;;;;;9.40;2.55;;;9.20;99.90;;;;;;5039714;28;20045;-73
2022/11/06 06:09:23;;;;;;;4.78;2.47;;;9.10;99.90;;;;;;5031922;28;20037;-74
2022/11/06 06:11:51;;;;;;;6.70;2.05;;;9.20;99.90;;;;;;5049627;28;20589;-73
2022/11/06 06:14:17;;;;;;;10.20;2.08;;;9.20;99.90;;;;;;5051064;28;20060;-73
2022/11/06 06:16:43;;;;;;;;;;;9.20;99.90;;;;;;5050558;28;20187;-73
2022/11/06 06:19:08;;;;;;;9.18;2.03;;;9.10;99.90;;;;;;5050376;28;20039;-73
2022/11/06 06:21:35;;;;;;;9.10;1.80;;;9.20;99.90;;;;;;5050238;28;20084;-76
2022/11/06 06:24:01;;;;;;;7.55;2.15;;;9.20;99.90;;;;;;5051579;28;20048;-75
2022/11/06 06:26:27;;;;;;;13.02;2.88;;;9.30;99.90;;;;;;5051375;28;20045;-73
2022/11/06 06:28:53;;;;;;;7.22;2.13;;;9.20;99.90;;;;;;5050782;28;20585;-75
2022/11/06 06:31:18;;;;;;;4.38;2.00;;;9.20;99.90;;;;;;5051097;28;20053;-73
2022/11/06 06:33:44;;;;;;;5.43;1.90;;;9.30;99.90;;;;;;5047304;28;20040;-74
2022/11/06 06:36:10;;;;;;;6.40;2.17;;;9.30;99.90;;;;;;5049016;28;20127;-74
2022/11/06 06:38:36;;;;;;;3.67;1.80;;;9.30;99.90;;;;;;5050129;28;20049;-76
2022/11/06 06:41:03;;;;;;;8.43;2.03;;;9.30;99.90;;;;;;5051236;28;20092;-72
2022/11/06 06:43:29;;;;;;;10.70;1.70;;;9.30;99.90;;;;;;5051292;28;20132;-73
2022/11/06 06:45:58;;;;;;;10.02;2.35;;;9.30;99.90;;;;;;5049961;28;20128;-72
2022/11/06 06:48:24;;;;;;;4.88;1.67;;;9.40;99.90;;;;;;5045615;28;20077;-72
2022/11/06 06:50:50;;;;;;;8.75;1.80;;;9.40;99.90;;;;;;5048546;28;20053;-74
2022/11/06 06:53:15;;;;;;;3.97;2.05;;;9.50;99.90;;;;;;5051003;28;20120;-72
2022/11/06 06:55:41;;;;;;;6.32;1.90;;;9.40;99.90;;;;;;5050210;28;20044;-73
2022/11/06 06:58:07;;;;;;;7.80;2.20;;;9.40;99.90;;;;;;5037520;28;20052;-74
2022/11/06 07:00:32;;;;;;;4.97;1.92;;;9.40;99.90;;;;;;5050137;28;20127;-75
2022/11/06 07:03:00;;;;;;;5.00;2.20;;;9.40;99.90;;;;;;5049845;28;20056;-73
2022/11/06 07:05:25;;;;;;;7.45;1.67;;;9.50;99.90;;;;;;5048573;28;20456;-72
2022/11/06 07:07:51;;;;;;;4.18;1.70;;;9.50;99.90;;;;;;5082539;28;20128;-73
2022/11/06 07:10:17;;;;;;;11.25;2.55;;;9.50;99.90;;;;;;5050777;28;20051;-72
2022/11/06 07:12:42;;;;;;;6.60;1.80;;;9.50;99.90;;;;;;5049968;28;20056;-72
2022/11/06 07:15:09;;;;;;;7.40;1.80;;;9.60;99.90;;;;;;5050256;28;20049;-72
2022/11/06 07:17:34;;;;;;;11.40;2.33;;;9.60;99.90;;;;;;5050344;28;20045;-76
2022/11/06 07:20:00;;;;;;;4.57;1.85;;;9.60;99.90;;;;;;5047926;28;20053;-74
2022/11/06 07:22:27;;;;;;;6.03;1.80;;;9.60;99.90;;;;;;5038467;28;20123;-72
2022/11/06 07:24:52;;;;;;;4.93;1.38;;;9.60;99.90;;;;;;5029762;28;20049;-73
2022/11/06 07:27:18;;;;;;;4.47;1.85;;;9.60;99.90;;;;;;5036007;28;20045;-72
2022/11/06 07:29:44;;;;;;;4.93;1.83;;;9.60;99.90;;;;;;5031514;28;20118;-72
2022/11/06 07:32:09;;;;;;;3.45;1.95;;;9.70;99.90;;;;;;5049685;28;20410;-72
2022/11/06 07:34:37;;;;;;;3.55;1.73;;;9.70;99.90;;;;;;5046329;28;20056;-75
2022/11/06 07:37:04;;;;;;;6.05;1.80;;;9.70;99.90;;;;;;5064961;28;20063;-75
2022/11/06 07:39:30;;;;;;;9.77;2.00;;;9.70;99.90;;;;;;5048106;28;20053;-77
2022/11/06 07:41:56;;;;;;;8.00;2.35;;;9.80;99.90;;;;;;5042489;28;20056;-75
2022/11/06 07:44:21;;;;;;;11.13;1.75;;;9.80;99.90;;;;;;5049561;28;20574;-74
2022/11/06 07:46:47;;;;;;;8.32;1.63;;;9.70;99.90;;;;;;5042268;28;20049;-74
2022/11/06 07:49:14;;;;;;;9.95;2.42;;;9.80;99.90;;;;;;5029031;28;20127;-73
2022/11/06 07:51:41;;;;;;;4.82;1.67;;;9.80;99.90;;;;;;5043297;28;20551;-80
2022/11/06 07:54:06;;;;;;;3.65;1.55;;;9.90;99.90;;;;;;5050124;28;20083;-76
2022/11/06 07:56:32;;;;;;;5.22;1.55;;;9.90;99.90;;;;;;5049935;28;20482;-74
2022/11/06 07:58:58;;;;;;;6.90;1.70;;;9.90;99.90;;;;;;5048769;28;20187;-75
2022/11/06 08:01:24;;;;;;;6.75;1.88;;;9.90;99.90;;;;;;5049779;28;20056;-75
2022/11/06 08:03:49;;;;;;;5.45;1.67;;;10.00;99.90;;;;;;5049821;28;20049;-78
2022/11/06 08:06:15;;;;;;;2.17;1.40;;;9.90;99.90;;;;;;5049268;28;20096;-77
2022/11/06 08:08:41;;;;;;;10.95;3.03;;;10.00;99.90;;;;;;5049408;28;20048;-80
2022/11/06 08:11:09;;;;;;;3.63;1.55;;;10.00;99.90;;;;;;5047615;28;20052;-75
2022/11/06 08:13:36;;;;;;;7.95;2.10;;;10.00;99.90;;;;;;5048845;28;20150;-74
2022/11/06 08:16:05;;;;;;;;;;;10.00;99.90;;;;;;5049676;28;20532;-73
2022/11/06 08:18:31;;;;;;;7.43;1.70;;;10.10;99.90;;;;;;5042527;28;19966;-73
2022/11/06 08:20:57;;;;;;;9.48;2.30;;;10.10;99.90;;;;;;5046817;28;20052;-72
2022/11/06 08:23:22;;;;;;;1.95;1.50;;;10.10;99.90;;;;;;5065681;28;20047;-70
2022/11/06 08:25:48;;;;;;;7.88;1.45;;;10.20;99.90;;;;;;5039674;28;20083;-72
2022/11/06 08:28:14;;;;;;;3.40;1.75;;;10.20;99.90;;;;;;5041720;28;20053;-72
2022/11/06 08:30:39;;;;;;;6.07;2.03;;;10.30;99.90;;;;;;5040083;28;20052;-75
2022/11/06 08:33:07;;;;;;;3.78;1.58;;;10.30;99.90;;;;;;5037846;28;20048;-74
2022/11/06 08:35:35;;;;;;;3.22;1.70;;;10.30;99.90;;;;;;5038236;28;20037;-73
2022/11/06 08:38:02;;;;;;;8.05;1.77;;;10.30;99.90;;;;;;5043194;28;20146;-75
2022/11/06 08:40:28;;;;;;;6.13;1.80;;;10.30;99.90;;;;;;5036265;28;20394;-73
2022/11/06 08:42:59;;;;;;;5.47;1.75;;;10.40;99.90;;;;;;5043510;28;20048;-73
2022/11/06 08:45:24;;;;;;;4.47;1.65;;;10.50;99.90;;;;;;5035489;28;20053;-73
2022/11/06 08:47:50;;;;;;;3.75;1.52;;;10.50;99.90;;;;;;5039677;28;20037;-75
2022/11/06 08:50:16;;;;;;;5.57;1.92;;;10.50;99.90;;;;;;5028007;28;20099;-74
2022/11/06 08:52:41;;;;;;;4.40;1.80;;;10.50;99.90;;;;;;5045832;28;20057;-76
2022/11/06 08:55:07;;;;;;;6.10;1.52;;;10.50;99.90;;;;;;5039784;28;20047;-74
2022/11/06 08:57:33;;;;;;;7.80;2.55;;;10.60;99.90;;;;;;5034511;28;20044;-74
2022/11/06 08:59:58;;;;;;;5.95;1.92;;;10.70;99.90;;;;;;5031704;28;20041;-74
2022/11/06 09:02:24;;;;;;;3.13;1.63;;;10.70;99.90;;;;;;5040321;28;20080;-73
2022/11/06 09:04:50;;;;;;;6.97;1.55;;;10.90;99.90;;;;;;5032293;28;20072;-75
2022/11/06 09:07:16;;;;;;;2.45;1.50;;;10.90;99.90;;;;;;5037360;28;20052;-74
2022/11/06 09:09:42;;;;;;;4.35;1.70;;;10.90;99.90;;;;;;5036892;28;20041;-75
2022/11/06 09:12:07;;;;;;;5.65;1.98;;;10.90;99.90;;;;;;5066445;28;20169;-74
2022/11/06 09:14:34;;;;;;;8.40;2.35;;;11.00;99.90;;;;;;5038908;28;20087;-74
2022/11/06 09:16:59;;;;;;;5.45;2.25;;;10.90;99.90;;;;;;5037543;28;20079;-73
2022/11/06 09:19:25;;;;;;;5.40;1.42;;;10.90;99.90;;;;;;5034205;28;20049;-73
2022/11/06 09:21:51;;;;;;;7.10;1.73;;;10.90;99.90;;;;;;5034735;28;20041;-73
2022/11/06 09:24:16;;;;;;;7.68;1.60;;;11.00;99.90;;;;;;5045762;28;20063;-73
2022/11/06 09:26:42;;;;;;;3.40;1.50;;;11.10;99.90;;;;;;5034189;28;21022;-75
2022/11/06 09:29:08;;;;;;;4.70;1.70;;;11.10;99.90;;;;;;5030967;28;20084;-74
2022/11/06 09:31:33;;;;;;;5.85;1.67;;;11.20;99.90;;;;;;5037038;28;20041;-73
2022/11/06 09:33:59;;;;;;;3.30;1.05;;;11.20;99.90;;;;;;5035067;28;20490;-73
2022/11/06 09:36:25;;;;;;;6.60;2.10;;;11.30;99.90;;;;;;5029100;28;20045;-74
2022/11/06 09:38:50;;;;;;;3.67;1.40;;;11.30;99.90;;;;;;5041672;28;20095;-76
2022/11/06 09:41:50;;;;;;;3.63;1.58;;;11.40;99.90;;;;;;5041961;28;20055;-73
2022/11/06 09:44:43;;;;;;;5.03;1.77;;;11.40;99.90;;;;;;5043074;28;20064;-75
2022/11/06 09:47:17;;;;;;;3.90;2.03;;;11.30;99.90;;;;;;5038506;28;20187;-74
2022/11/06 09:49:52;;;;;;;6.40;2.00;;;11.30;99.90;;;;;;5041522;28;20040;-74
2022/11/06 09:52:32;;;;;;;8.07;1.98;;;11.30;99.90;;;;;;5052590;28;20056;-74
2022/11/06 09:55:04;;;;;;;2.47;1.30;;;11.30;99.90;;;;;;5040969;28;20088;-74
2022/11/06 09:57:35;;;;;;;5.10;1.88;;;11.30;99.90;;;;;;5033364;28;20123;-74
2022/11/06 10:00:04;;;;;;;5.75;1.80;;;11.30;99.90;;;;;;5032055;28;20081;-74
2022/11/06 10:02:38;;;;;;;4.97;1.73;;;11.30;99.90;;;;;;5040049;28;20045;-74
2022/11/06 10:05:10;;;;;;;5.28;2.38;;;11.40;99.90;;;;;;5049033;28;20048;-74
2022/11/06 10:07:39;;;;;;;5.85;1.50;;;11.40;99.90;;;;;;5049838;28;20475;-75
2022/11/06 10:10:10;;;;;;;5.10;2.10;;;11.40;99.90;;;;;;5047689;28;20391;-75
2022/11/06 10:13:05;;;;;;;3.08;1.88;;;11.40;99.90;;;;;;5067495;28;20048;-73
2022/11/06 10:15:50;;;;;;;1.40;1.15;;;11.50;99.90;;;;;;5051535;28;20041;-74
2022/11/06 10:18:41;;;;;;;6.32;2.30;;;11.60;99.90;;;;;;5038842;28;20049;-73
2022/11/06 10:21:18;;;;;;;5.93;1.23;;;11.60;99.90;;;;;;5050307;28;20402;-73
2022/11/06 10:23:56;;;;;;;3.03;1.60;;;11.70;99.90;;;;;;5052190;28;20048;-75
2022/11/06 10:26:44;;;;;;;5.95;1.60;;;11.80;99.90;;;;;;5046417;28;20637;-77
2022/11/06 10:29:50;;;;;;;5.93;1.85;;;12.00;99.90;;;;;;5041931;28;20029;-74
2022/11/06 10:32:47;;;;;;;2.38;1.02;;;12.20;99.90;;;;;;5051125;28;20058;-75
2022/11/06 10:35:31;;;;;;;4.38;1.70;;;12.40;99.90;;;;;;5047158;28;20596;-74
2022/11/06 10:38:09;;;;;;;5.65;1.85;;;12.50;99.90;;;;;;5050643;28;20053;-74
2022/11/06 10:40:35;;;;;;;;;;;12.60;99.90;;;;;;5052047;28;20049;-73
2022/11/06 10:43:22;;;;;;;3.55;1.02;;;12.60;99.90;;;;;;5082482;28;19927;-75
2022/11/06 10:45:52;;;;;;;3.58;1.50;;;12.60;99.90;;;;;;5043359;28;20168;-74
2022/11/06 10:48:31;;;;;;;3.55;1.20;;;12.50;99.90;;;;;;5042755;28;20120;-75
2022/11/06 10:51:28;;;;;;;4.65;1.25;;;12.50;99.90;;;;;;5048445;28;20398;-80
2022/11/06 10:54:19;;;;;;;2.92;1.00;;;12.40;99.90;;;;;;5015095;28;20460;-75
2022/11/06 10:57:02;;;;;;;3.45;1.20;;;12.40;99.90;;;;;;5043571;28;21243;-72
2022/11/06 10:59:28;;;;;;;5.65;1.50;;;12.40;99.90;;;;;;5074961;28;20095;-75
2022/11/06 11:01:53;;;;;;;5.03;1.40;;;12.50;99.90;;;;;;5043590;28;20073;-76
2022/11/06 11:04:19;;;;;;;2.00;0.95;;;12.50;99.90;;;;;;5044504;28;20132;-76
2022/11/06 11:06:45;;;;;;;6.05;1.23;;;12.60;99.90;;;;;;5047554;28;20049;-74
2022/11/06 11:09:32;;;;;;;3.40;1.52;;;12.80;99.90;;;;;;5049973;28;20040;-75
2022/11/06 11:11:59;;;;;;;2.20;1.08;;;13.10;99.90;;;;;;5048653;28;20045;-77
2022/11/06 11:14:30;;;;;;;2.33;1.25;;;13.30;99.90;;;;;;5040483;28;20053;-73
2022/11/06 11:17:00;;;;;;;2.58;1.17;;;13.60;99.90;;;;;;5047638;28;20041;-79
2022/11/06 11:19:25;;;;;;;5.68;1.38;;;14.00;99.90;;;;;;5048814;28;20051;-75
2022/11/06 11:21:56;;;;;;;2.38;1.10;;;14.10;99.90;;;;;;5049298;28;20041;-74
2022/11/06 11:24:22;;;;;;;4.38;1.02;;;14.10;99.90;;;;;;5047482;28;20045;-74
2022/11/06 11:26:52;;;;;;;5.78;1.35;;;14.30;99.90;;;;;;5042375;28;20060;-75
2022/11/06 11:29:32;;;;;;;1.25;0.85;;;14.20;99.90;;;;;;5046935;28;20337;-74
2022/11/06 11:32:17;;;;;;;2.95;1.00;;;14.20;99.90;;;;;;5041482;28;20068;-76
2022/11/06 11:34:47;;;;;;;4.57;1.10;;;14.10;99.90;;;;;;5044760;28;20402;-75
2022/11/06 11:37:26;;;;;;;4.97;1.13;;;14.10;99.90;;;;;;5049873;28;20063;-74
2022/11/06 11:39:52;;;;;;;3.67;1.48;;;14.00;99.90;;;;;;5049699;28;20456;-74
2022/11/06 11:42:27;;;;;;;3.10;1.40;;;13.80;99.90;;;;;;5047153;28;20041;-74
2022/11/06 11:45:20;;;;;;;4.07;1.70;;;13.60;99.90;;;;;;5045376;28;20076;-74
2022/11/06 11:47:48;;;;;;;2.17;0.98;;;13.40;99.90;;;;;;5030924;28;20052;-73
2022/11/06 11:50:31;;;;;;;2.95;1.38;;;13.30;99.90;;;;;;5033011;28;20051;-75
2022/11/06 11:53:20;;;;;;;3.08;1.23;;;13.20;99.90;;;;;;5049783;28;20128;-76
2022/11/06 11:55:49;;;;;;;5.85;1.73;;;13.00;99.90;;;;;;5046828;28;20120;-73
2022/11/06 11:58:20;;;;;;;8.25;1.60;;;12.90;99.90;;;;;;5049181;28;20044;-73
2022/11/06 12:00:58;;;;;;;4.90;1.40;;;12.80;99.90;;;;;;5045934;28;20444;-74
2022/11/06 12:03:31;;;;;;;3.88;1.23;;;12.80;99.90;;;;;;5047623;28;20151;-74
2022/11/06 12:06:08;;;;;;;4.00;1.35;;;12.80;99.90;;;;;;5047383;28;20193;-74
2022/11/06 12:08:33;;;;;;;;;;;12.80;99.90;;;;;;5040887;28;20058;-75
2022/11/06 12:11:04;;;;;;;1.90;1.08;;;12.80;99.90;;;;;;5030470;28;19938;-76
2022/11/06 12:13:30;;;;;;;2.03;0.95;;;12.90;99.90;;;;;;5032871;28;20070;-75
2022/11/06 12:16:17;;;;;;;7.88;1.75;;;12.90;99.90;;;;;;5036606;28;20128;-75
2022/11/06 12:18:52;;;;;;;3.00;1.27;;;13.10;99.90;;;;;;5031041;28;20033;-75
2022/11/06 12:21:23;;;;;;;2.28;1.00;;;13.30;99.90;;;;;;5029414;28;20186;-74
2022/11/06 12:24:06;;;;;;;5.10;1.20;;;13.20;99.90;;;;;;5033800;28;20049;-74
2022/11/06 12:26:43;;;;;;;5.75;1.48;;;13.10;99.90;;;;;;5028317;28;20045;-74
2022/11/06 12:29:47;;;;;;;3.08;1.40;;;13.10;99.90;;;;;;5028915;28;20045;-74
2022/11/06 12:32:25;;;;;;;3.65;1.40;;;13.00;99.90;;;;;;5003418;28;20104;-76
2022/11/06 12:35:04;;;;;;;3.97;1.20;;;13.20;99.90;;;;;;5032694;28;20091;-75
2022/11/06 12:37:47;;;;;;;3.33;1.48;;;13.50;99.90;;;;;;5040493;28;20114;-75
2022/11/06 12:40:20;;;;;;;5.70;1.30;;;13.40;99.90;;;;;;5041253;28;20494;-76
2022/11/06 12:43:03;;;;;;;3.95;1.60;;;13.20;99.90;;;;;;5032465;28;20127;-75
2022/11/06 12:45:55;;;;;;;3.42;1.30;;;13.00;99.90;;;;;;5051940;28;20045;-73
2022/11/06 12:48:43;;;;;;;8.77;1.52;;;12.90;99.90;;;;;;5027694;28;20124;-75
2022/11/06 12:51:27;;;;;;;1.63;1.15;;;12.80;99.90;;;;;;5068444;28;20490;-75
2022/11/06 12:53:58;;;;;;;6.45;2.10;;;12.80;99.90;;;;;;5037403;28;20120;-74
2022/11/06 12:56:39;;;;;;;3.80;1.42;;;12.70;99.90;;;;;;5036208;28;20041;-73
2022/11/06 12:59:23;;;;;;;4.95;1.35;;;12.70;99.90;;;;;;5030572;28;20048;-77
2022/11/06 13:02:26;;;;;;;3.95;1.10;;;12.70;99.90;;;;;;5037109;28;20046;-76
2022/11/06 13:05:00;;;;;;;3.90;1.63;;;12.70;99.90;;;;;;5073787;28;20048;-74
2022/11/06 13:07:33;;;;;;;6.82;1.40;;;12.70;99.90;;;;;;5039153;28;20045;-74
2022/11/06 13:10:12;;;;;;;1.70;1.20;;;12.60;99.90;;;;;;5045048;28;20120;-75
2022/11/06 13:12:58;;;;;;;7.38;1.13;;;12.60;99.90;;;;;;5042548;28;20045;-75
2022/11/06 13:15:24;;;;;;;3.05;1.38;;;12.60;99.90;;;;;;5056427;28;20049;-74
2022/11/06 13:18:00;;;;;;;2.95;1.00;;;12.60;99.90;;;;;;5041291;28;20053;-74
2022/11/06 13:20:46;;;;;;;2.33;1.15;;;12.60;99.90;;;;;;5042092;28;20116;-76
2022/11/06 13:23:37;;;;;;;4.60;1.20;;;12.60;99.90;;;;;;5035733;28;20441;-75
2022/11/06 13:26:12;;;;;;;3.55;1.20;;;12.60;99.90;;;;;;5024443;28;20081;-74